Meteo Giornale » Osservazioni meteo Stati Uniti (USA) » Challis
ore: 03:55 - Osservazioni Meteo Challis
Lat. 44° 31' N Lon. 114° 12' W Alt. 1546 metri s.l.m.
9 °C
Sereno
Temp. 24 Ore
3 °C
28 °C
Nord
5.5 Km/h
Dew point -2 °C
Umidità 45 %
Visibilità 10 Km
Il sole sorge alle ore 06:59
Il sole tramonta alle ore 20:13
| Data e Ora | Cielo e Fenomeni | T °C | DP °C | Um. % | Pres. hPa | Vis. km | Vento km/h | |
|---|---|---|---|---|---|---|---|---|
| Oggi h: 03:55 | Sereno | 9 | -2 | 45 | 1016 | 10 | N 5.5 | |
| Oggi h: 02:55 | Sereno | 11 | -1 | 43 | 1016 | 10 | N 0 | |
| Oggi h: 01:55 | Sereno | 10 | 2 | 57 | 1016 | 10 | NO 9.3 | |
| Oggi h: 00:55 | Sereno | 13 | -2 | 35 | 1016 | 10 | N 0 | |
| Ieri h: 23:55 | Sereno | 14 | -3 | 30 | 1015 | 10 | N 0 | |
| Ieri h: 22:55 | Sereno | 16 | -5 | 23 | 1015 | 10 | N 5.5 | |
| Ieri h: 21:55 | Sereno | 16 | -4 | 24 | 1015 | 10 | S/SO 9.3 | |
| Ieri h: 20:55 | Sereno | 18 | -6 | 18 | 1014 | 10 | SO 7.4 | |
| Ieri h: 19:55 | Sereno | 21 | -5 | 16 | 1014 | 10 | O/NO 7.4 | |
| Ieri h: 18:55 | Sereno | 27 | -2 | 14 | 1014 | 10 | N/NO 7.4 | |
| Ieri h: 17:55 | Sereno | 28 | -7 | 9 | 1014 | 10 | N 11.1 | |
| Ieri h: 16:55 | Sereno | 28 | -8 | 8 | 1015 | 10 | N 11.1 | |
| Ieri h: 15:55 | Sereno | 27 | -7 | 10 | 1016 | 10 | N/NE 9.3 | |
| Ieri h: 14:55 | Sereno | 26 | -6 | 11 | 1017 | 10 | N/NE 9.3 | |
| Ieri h: 13:55 | Sereno | 23 | -6 | 13 | 1018 | 10 | N 5.5 | |
| Ieri h: 12:55 | Sereno | 21 | -6 | 15 | 1019 | 10 | N 5.5 | |
| Ieri h: 11:55 | Sereno | 18 | -5 | 20 | 1020 | 10 | N 0 | |
| Ieri h: 10:55 | Sereno | 16 | -5 | 23 | 1020 | 10 | N 0 | |
| Ieri h: 09:55 | Sereno | 13 | -5 | 28 | 1021 | 10 | N 0 | |
| Ieri h: 08:55 | Sereno | 9 | -4 | 39 | 1021 | 10 | N 0 | |
| Ieri h: 07:55 | Sereno | 7 | -3 | 48 | 1021 | 10 | N 0 | |
| Ieri h: 06:55 | Sereno | 3 | -3 | 64 | 1020 | 10 | N 5.5 | |
| Ieri h: 05:55 | Sereno | 6 | -4 | 48 | 1020 | 10 | N 0 | |
| Ieri h: 04:55 | Sereno | 6 | -4 | 48 | 1020 | 10 | N 0 | |



